createdAt,value
2019-02-18T00:01:30.989Z,46.97
2019-02-18T00:04:01.525Z,41.60
2019-02-18T00:06:32.456Z,43.47
2019-02-18T00:09:05.239Z,51.20
2019-02-18T00:11:36.614Z,45.53
2019-02-18T00:14:07.504Z,52.87
2019-02-18T00:16:37.988Z,47.90
2019-02-18T00:19:08.875Z,48.47
2019-02-18T00:21:39.574Z,49.73
2019-02-18T00:24:10.834Z,48.57
2019-02-18T00:26:41.562Z,51.83
2019-02-18T00:29:12.671Z,45.10
2019-02-18T00:31:44.040Z,46.63
2019-02-18T00:34:15.777Z,49.57
2019-02-18T00:36:46.359Z,46.00
2019-02-18T00:39:16.856Z,50.83
2019-02-18T00:41:49.302Z,52.87
2019-02-18T00:44:19.972Z,51.53
2019-02-18T00:46:50.956Z,48.67
2019-02-18T00:49:22.831Z,51.20
2019-02-18T00:51:53.242Z,51.00
2019-02-18T00:54:24.191Z,54.37
2019-02-18T00:56:54.743Z,55.53
2019-02-18T00:59:25.580Z,51.50
2019-02-18T01:01:56.204Z,52.27
2019-02-18T01:04:26.636Z,52.87
2019-02-18T01:06:57.626Z,54.97
2019-02-18T01:09:28.335Z,57.10
2019-02-18T01:11:58.927Z,54.77
2019-02-18T01:14:30.086Z,51.63
2019-02-18T01:17:00.738Z,52.03
2019-02-18T01:19:31.599Z,54.80
2019-02-18T01:22:02.579Z,57.13
2019-02-18T01:24:32.995Z,50.30
2019-02-18T01:27:03.645Z,61.27
2019-02-18T01:29:34.248Z,60.20
2019-02-18T01:32:04.903Z,66.10
2019-02-18T01:34:35.423Z,64.43
2019-02-18T01:37:06.601Z,67.63
2019-02-18T01:39:37.055Z,56.63
2019-02-18T01:42:07.487Z,59.83
2019-02-18T01:44:38.119Z,56.97
2019-02-18T01:47:09.647Z,61.47
2019-02-18T01:49:40.448Z,53.13
2019-02-18T01:52:11.385Z,51.63
2019-02-18T01:54:41.934Z,49.80
2019-02-18T01:57:12.962Z,53.63
2019-02-18T01:59:43.633Z,52.13
2019-02-18T02:02:14.374Z,51.73
2019-02-18T02:04:45.275Z,52.90
2019-02-18T02:07:15.919Z,47.23
2019-02-18T02:09:46.980Z,56.30
2019-02-18T02:12:17.758Z,52.77
2019-02-18T02:14:48.244Z,53.30
2019-02-18T02:17:18.938Z,53.70
2019-02-18T02:19:49.668Z,52.93
2019-02-18T02:22:20.254Z,56.10
2019-02-18T02:24:50.936Z,63.57
2019-02-18T02:27:21.594Z,57.37
2019-02-18T02:29:52.382Z,51.77
2019-02-18T02:32:23.008Z,54.80
2019-02-18T02:34:53.701Z,54.80
2019-02-18T02:37:24.272Z,56.13
2019-02-18T02:39:55.026Z,53.63
2019-02-18T02:42:25.793Z,52.30
2019-02-18T02:44:56.651Z,52.63
2019-02-18T02:47:27.564Z,55.33
2019-02-18T02:49:58.128Z,58.23
2019-02-18T02:52:28.740Z,52.20
2019-02-18T02:54:59.170Z,51.10
2019-02-18T02:57:29.750Z,54.47
2019-02-18T03:00:00.644Z,58.40
2019-02-18T03:02:31.756Z,56.60
2019-02-18T03:05:02.831Z,65.33
2019-02-18T03:07:33.606Z,57.90
2019-02-18T03:10:04.314Z,60.63
2019-02-18T03:12:35.043Z,65.87
2019-02-18T03:15:05.999Z,63.43
2019-02-18T03:17:36.679Z,62.37
2019-02-18T03:20:07.861Z,63.43
2019-02-18T03:22:39.455Z,63.40
2019-02-18T03:25:23.874Z,60.77
2019-02-18T03:28:01.160Z,60.63
2019-02-18T03:30:56.601Z,60.73
2019-02-18T03:33:40.453Z,60.07
2019-02-18T03:36:10.981Z,62.57
2019-02-18T03:38:41.824Z,61.13
2019-02-18T03:41:12.234Z,64.60
2019-02-18T03:43:42.912Z,69.00
2019-02-18T03:46:13.422Z,62.07
2019-02-18T03:48:44.131Z,63.30
2019-02-18T03:51:14.614Z,64.13
2019-02-18T03:53:45.196Z,63.57
2019-02-18T03:56:15.900Z,66.73
2019-02-18T03:58:46.351Z,66.50
2019-02-18T04:01:16.778Z,67.23
2019-02-18T04:03:48.696Z,69.97
2019-02-18T04:06:19.463Z,66.27
2019-02-18T04:08:49.936Z,61.63
2019-02-18T04:11:20.693Z,62.53
2019-02-18T04:13:51.422Z,67.17
2019-02-18T04:16:21.895Z,62.60
2019-02-18T04:18:52.719Z,61.97
2019-02-18T04:21:23.273Z,65.77
2019-02-18T04:23:53.956Z,67.40
2019-02-18T04:26:26.597Z,59.83
2019-02-18T04:28:57.503Z,61.63
2019-02-18T04:31:27.928Z,57.47
2019-02-18T04:33:58.787Z,66.57
2019-02-18T04:36:29.395Z,62.17
2019-02-18T04:39:00.376Z,64.20
2019-02-18T04:41:32.548Z,64.23
2019-02-18T04:44:04.288Z,64.67
2019-02-18T04:46:34.731Z,65.93
2019-02-18T04:49:05.739Z,63.50
2019-02-18T04:51:36.462Z,62.17
2019-02-18T04:54:07.340Z,64.63
2019-02-18T04:56:38.223Z,68.93
2019-02-18T04:59:08.678Z,67.80
2019-02-18T05:01:39.329Z,63.00
2019-02-18T05:04:09.998Z,63.80
2019-02-18T05:06:40.772Z,65.93
2019-02-18T05:09:11.614Z,65.10
2019-02-18T05:11:42.603Z,60.23
2019-02-18T05:14:13.329Z,63.33
2019-02-18T05:16:43.916Z,58.43
2019-02-18T05:19:14.403Z,68.20
2019-02-18T05:21:45.124Z,63.90
2019-02-18T05:24:15.712Z,64.07
2019-02-18T05:26:46.872Z,59.40
2019-02-18T05:29:17.662Z,59.03
2019-02-18T05:31:48.282Z,58.20
2019-02-18T05:34:19.006Z,62.07
2019-02-18T05:36:49.972Z,58.97
2019-02-18T05:39:20.885Z,58.10
2019-02-18T05:41:51.848Z,61.37
2019-02-18T05:44:22.684Z,61.30
2019-02-18T05:46:53.206Z,66.67
2019-02-18T05:49:24.033Z,65.00
2019-02-18T05:51:54.720Z,64.10
2019-02-18T05:54:25.444Z,65.20
2019-02-18T05:56:56.093Z,58.30
2019-02-18T05:59:27.173Z,65.00
2019-02-18T06:01:57.985Z,58.73
2019-02-18T06:04:28.539Z,63.27
2019-02-18T06:07:00.506Z,63.00
2019-02-18T06:09:31.434Z,65.20
2019-02-18T06:12:02.189Z,68.63
2019-02-18T06:14:32.833Z,65.30
2019-02-18T06:17:04.184Z,71.43
2019-02-18T06:19:34.747Z,66.70
2019-02-18T06:22:05.355Z,61.60
2019-02-18T06:24:35.868Z,63.10
2019-02-18T06:27:06.467Z,71.67
2019-02-18T06:29:38.167Z,56.90
2019-02-18T06:32:08.949Z,69.67
2019-02-18T06:34:39.454Z,69.57
2019-02-18T06:37:10.216Z,60.67
2019-02-18T06:39:42.023Z,60.03
2019-02-18T06:42:12.802Z,62.83
2019-02-18T06:44:58.386Z,70.20
2019-02-18T06:47:29.873Z,65.07
2019-02-18T06:50:00.317Z,66.60
2019-02-18T06:52:32.648Z,58.33
2019-02-18T06:55:03.216Z,62.93
2019-02-18T06:57:51.814Z,63.07
2019-02-18T07:00:37.684Z,64.50
2019-02-18T07:03:18.432Z,67.40
2019-02-18T07:06:02.776Z,75.87
2019-02-18T07:08:47.294Z,59.67
2019-02-18T07:11:31.102Z,61.63
2019-02-18T07:14:01.638Z,71.60
2019-02-18T07:16:32.088Z,64.83
2019-02-18T07:19:02.862Z,63.50
2019-02-18T07:21:33.590Z,65.57
2019-02-18T07:24:04.195Z,64.40
2019-02-18T07:26:34.665Z,71.50
2019-02-18T07:29:05.452Z,64.63
2019-02-18T07:31:35.899Z,65.50
2019-02-18T07:34:06.509Z,59.60
2019-02-18T07:36:37.236Z,57.17
2019-02-18T07:39:08.585Z,62.77
2019-02-18T07:41:39.031Z,59.37
2019-02-18T07:44:09.813Z,61.37
2019-02-18T07:46:40.946Z,53.60
2019-02-18T07:49:11.471Z,61.73
2019-02-18T07:51:41.949Z,47.80
2019-02-18T07:54:12.939Z,50.70
2019-02-18T07:56:43.689Z,52.63
2019-02-18T07:59:14.555Z,50.57
2019-02-18T08:01:45.239Z,45.47
2019-02-18T08:04:15.927Z,45.57
2019-02-18T08:06:46.549Z,50.97
2019-02-18T08:09:17.546Z,46.37
2019-02-18T08:11:48.359Z,49.17
2019-02-18T08:14:19.150Z,49.10
2019-02-18T08:16:50.131Z,49.23
2019-02-18T08:19:20.605Z,45.23
2019-02-18T08:21:51.276Z,45.60
2019-02-18T08:24:21.749Z,46.97
2019-02-18T08:26:52.235Z,41.87
2019-02-18T08:29:22.909Z,39.60
2019-02-18T08:31:53.465Z,35.47
2019-02-18T08:34:23.932Z,40.37
2019-02-18T08:36:54.630Z,43.03
2019-02-18T08:39:25.492Z,41.70
2019-02-18T08:41:55.954Z,40.57
2019-02-18T08:44:27.230Z,46.73
2019-02-18T08:46:57.812Z,39.30
2019-02-18T08:49:28.456Z,38.60
2019-02-18T08:51:59.102Z,41.57
2019-02-18T08:54:29.774Z,37.20
2019-02-18T08:57:00.574Z,41.83
2019-02-18T08:59:31.229Z,45.03
2019-02-18T09:02:01.735Z,46.70
2019-02-18T09:04:32.748Z,37.23
2019-02-18T09:07:03.433Z,41.37
2019-02-18T09:09:34.002Z,36.00
2019-02-18T09:12:04.583Z,35.10
2019-02-18T09:14:35.464Z,40.83
2019-02-18T09:17:06.256Z,37.53
2019-02-18T09:19:36.863Z,35.57
2019-02-18T09:22:26.759Z,36.83
2019-02-18T09:25:03.249Z,33.30
2019-02-18T09:27:33.835Z,29.30
2019-02-18T09:30:04.799Z,33.07
2019-02-18T09:32:35.958Z,35.00
2019-02-18T09:35:06.597Z,36.87
2019-02-18T09:37:37.579Z,40.77
2019-02-18T09:40:09.277Z,33.17
2019-02-18T09:42:39.877Z,32.33
2019-02-18T09:45:10.771Z,32.03
2019-02-18T09:47:41.737Z,32.30
2019-02-18T09:50:12.576Z,30.67
2019-02-18T09:52:43.456Z,30.83
2019-02-18T09:55:13.871Z,34.00
2019-02-18T09:57:45.272Z,30.40
2019-02-18T10:00:16.289Z,31.50
2019-02-18T10:02:47.373Z,32.87
2019-02-18T10:05:18.164Z,26.73
2019-02-18T10:07:49.153Z,30.20
2019-02-18T10:10:19.683Z,31.47
2019-02-18T10:12:50.620Z,51.73
2019-02-18T10:15:21.158Z,82.17
2019-02-18T10:17:53.225Z,47.30
2019-02-18T10:20:24.106Z,33.90
2019-02-18T10:22:54.662Z,29.57
2019-02-18T10:25:25.610Z,31.80
2019-02-18T10:27:56.577Z,34.70
2019-02-18T10:30:27.401Z,29.83
2019-02-18T10:32:58.221Z,34.53
2019-02-18T10:35:28.974Z,32.87
2019-02-18T10:37:59.728Z,43.17
2019-02-18T10:40:30.952Z,37.83
2019-02-18T10:43:01.584Z,37.33
2019-02-18T10:45:32.098Z,37.53
2019-02-18T10:48:03.114Z,37.27
2019-02-18T10:50:33.846Z,43.37
2019-02-18T10:53:04.896Z,36.33
2019-02-18T10:55:35.553Z,39.70
2019-02-18T10:58:06.224Z,37.87
2019-02-18T11:00:37.232Z,43.70
2019-02-18T11:03:07.910Z,36.47
2019-02-18T11:05:39.001Z,35.87
2019-02-18T11:08:09.867Z,35.63
2019-02-18T11:10:40.736Z,35.10
2019-02-18T11:13:11.640Z,35.50
2019-02-18T11:15:42.363Z,29.90
2019-02-18T11:18:13.058Z,29.83
2019-02-18T11:20:43.798Z,34.10
2019-02-18T11:23:17.727Z,39.57
2019-02-18T11:25:49.085Z,37.20
2019-02-18T11:28:19.799Z,34.83
2019-02-18T11:30:50.362Z,32.67
2019-02-18T11:33:20.897Z,30.93
2019-02-18T11:35:51.703Z,26.20
2019-02-18T11:38:24.060Z,31.13
2019-02-18T11:40:54.872Z,28.57
2019-02-18T11:43:25.825Z,34.83
2019-02-18T11:45:56.423Z,35.23
2019-02-18T11:48:28.171Z,25.67
2019-02-18T11:50:58.786Z,24.37
2019-02-18T11:53:29.386Z,27.03
2019-02-18T11:56:00.656Z,27.40
2019-02-18T11:58:31.312Z,28.43
2019-02-18T12:01:02.252Z,26.40
2019-02-18T12:03:32.677Z,31.43
2019-02-18T12:06:03.178Z,29.53
2019-02-18T12:08:34.068Z,22.97
2019-02-18T12:11:05.102Z,28.10
2019-02-18T12:13:36.226Z,27.77
2019-02-18T12:16:07.126Z,24.00
2019-02-18T12:18:37.702Z,22.60
2019-02-18T12:21:08.410Z,22.40
2019-02-18T12:23:39.103Z,20.67
2019-02-18T12:26:11.198Z,22.13
2019-02-18T12:28:45.132Z,19.00
2019-02-18T12:31:15.242Z,23.30
2019-02-18T12:33:45.876Z,22.03
2019-02-18T12:36:16.295Z,22.87
2019-02-18T12:38:46.977Z,23.27
2019-02-18T12:41:17.465Z,17.30
2019-02-18T12:43:48.323Z,19.70
2019-02-18T12:46:18.913Z,15.90
2019-02-18T12:48:49.668Z,20.50
2019-02-18T12:51:20.713Z,17.20
2019-02-18T12:53:51.236Z,20.83
2019-02-18T12:56:22.023Z,21.70
2019-02-18T13:01:27.657Z,19.37
2019-02-18T13:03:58.227Z,21.80
2019-02-18T13:06:29.791Z,17.83
2019-02-18T13:09:00.547Z,16.13
2019-02-18T13:11:32.971Z,19.03
2019-02-18T13:14:04.102Z,20.73
2019-02-18T13:16:34.693Z,22.17
2019-02-18T13:19:05.174Z,20.70
2019-02-18T13:21:36.082Z,20.40
2019-02-18T13:24:06.828Z,18.53
2019-02-18T13:26:38.079Z,22.87
2019-02-18T13:29:08.538Z,24.40
2019-02-18T13:31:39.186Z,20.20
2019-02-18T13:34:10.205Z,19.43
2019-02-18T13:36:42.168Z,23.03
2019-02-18T13:39:13.171Z,22.93
2019-02-18T13:41:44.514Z,18.80
2019-02-18T13:44:15.107Z,19.47
2019-02-18T13:46:45.682Z,26.93
2019-02-18T13:49:16.276Z,28.63
2019-02-18T13:51:47.036Z,19.33
2019-02-18T13:54:18.452Z,24.07
2019-02-18T13:56:49.234Z,26.03
2019-02-18T13:59:19.851Z,17.80
2019-02-18T14:01:50.884Z,20.50
2019-02-18T14:04:21.553Z,20.33
2019-02-18T14:06:52.703Z,23.60
2019-02-18T14:09:23.563Z,18.67
2019-02-18T14:11:54.602Z,23.13
2019-02-18T14:14:25.421Z,26.20
2019-02-18T14:16:55.962Z,21.23
2019-02-18T14:19:27.043Z,24.77
2019-02-18T14:21:57.511Z,24.83
2019-02-18T14:24:28.364Z,28.63
2019-02-18T14:26:59.495Z,21.50
2019-02-18T14:29:30.126Z,20.23
2019-02-18T14:32:01.107Z,22.00
2019-02-18T14:34:32.003Z,19.27
2019-02-18T14:37:03.982Z,19.60
2019-02-18T14:39:34.689Z,22.67
2019-02-18T14:42:05.490Z,26.23
2019-02-18T14:44:36.193Z,20.60
2019-02-18T14:47:07.362Z,27.80
2019-02-18T14:49:38.126Z,48.80
2019-02-18T14:52:08.858Z,60.97
2019-02-18T14:54:39.677Z,86.97
2019-02-18T14:57:10.842Z,103.83
2019-02-18T14:59:42.098Z,45.07
2019-02-18T15:02:12.793Z,30.03
2019-02-18T15:04:43.427Z,31.47
2019-02-18T15:07:14.460Z,28.70
2019-02-18T15:09:45.596Z,27.87
2019-02-18T15:12:16.538Z,32.67
2019-02-18T15:14:47.416Z,35.53
2019-02-18T15:17:18.265Z,26.13
2019-02-18T15:19:49.060Z,28.77
2019-02-18T15:22:19.572Z,23.93
2019-02-18T15:24:50.640Z,29.23
2019-02-18T15:27:21.463Z,26.77
2019-02-18T15:29:52.581Z,23.97
2019-02-18T15:32:23.317Z,25.20
2019-02-18T15:34:54.136Z,27.37
2019-02-18T15:37:24.849Z,30.80
2019-02-18T15:39:55.911Z,32.47
2019-02-18T15:42:27.144Z,32.20
2019-02-18T15:44:58.101Z,32.90
2019-02-18T15:47:30.265Z,31.60
2019-02-18T15:50:01.019Z,36.40
2019-02-18T15:52:32.068Z,32.13
2019-02-18T15:55:03.597Z,29.50
2019-02-18T15:57:34.811Z,27.17
2019-02-18T16:00:06.869Z,29.53
2019-02-18T16:02:39.269Z,26.93
2019-02-18T16:05:10.360Z,27.73
2019-02-18T16:07:41.282Z,33.03
2019-02-18T16:10:11.912Z,30.97
2019-02-18T16:12:50.440Z,36.03
2019-02-18T16:15:15.687Z,31.23
2019-02-18T16:17:46.521Z,32.97
2019-02-18T16:20:17.634Z,31.40
2019-02-18T16:22:48.459Z,39.70
2019-02-18T16:25:21.518Z,37.07
2019-02-18T16:27:52.187Z,37.13
2019-02-18T16:30:23.190Z,38.27
2019-02-18T16:32:54.154Z,40.50
2019-02-18T16:35:25.233Z,40.03
2019-02-18T16:37:56.046Z,45.23
2019-02-18T16:40:27.360Z,48.23
2019-02-18T16:42:59.508Z,43.03
2019-02-18T16:45:30.311Z,42.20
2019-02-18T16:48:01.945Z,39.53
2019-02-18T16:50:32.472Z,43.77
2019-02-18T16:53:03.466Z,40.80
2019-02-18T16:55:34.432Z,40.97
2019-02-18T16:58:05.815Z,44.60
2019-02-18T17:00:36.711Z,45.17
2019-02-18T17:03:07.380Z,41.00
2019-02-18T17:05:38.028Z,42.47
2019-02-18T17:08:08.773Z,40.73
2019-02-18T17:10:39.516Z,41.17
2019-02-18T17:13:10.417Z,46.63
2019-02-18T17:15:41.277Z,53.53
2019-02-18T17:18:11.849Z,54.17
2019-02-18T17:20:42.530Z,49.93
2019-02-18T17:23:13.880Z,49.27
2019-02-18T17:25:44.836Z,46.73
2019-02-18T17:28:15.550Z,56.67
2019-02-18T17:30:46.387Z,51.47
2019-02-18T17:33:18.411Z,54.63
2019-02-18T17:35:49.803Z,51.43
2019-02-18T17:38:20.861Z,50.23
2019-02-18T17:40:51.680Z,48.47
2019-02-18T17:43:22.425Z,49.03
2019-02-18T17:45:53.683Z,51.80
2019-02-18T17:48:25.003Z,53.30
2019-02-18T17:50:55.732Z,54.00
2019-02-18T17:53:26.798Z,48.60
2019-02-18T17:55:57.616Z,53.73
2019-02-18T17:58:28.374Z,55.73
2019-02-18T18:01:00.140Z,60.57
2019-02-18T18:03:31.402Z,57.93
2019-02-18T18:06:02.328Z,52.20
2019-02-18T18:08:32.904Z,56.73
2019-02-18T18:11:03.528Z,55.00
2019-02-18T18:13:34.218Z,58.77
2019-02-18T18:16:05.408Z,54.87
2019-02-18T18:18:36.258Z,56.50
2019-02-18T18:21:06.984Z,53.73
2019-02-18T18:23:38.588Z,61.57
2019-02-18T18:26:09.566Z,56.90
2019-02-18T18:28:40.763Z,60.20
2019-02-18T18:31:12.674Z,51.53
2019-02-18T18:33:44.363Z,62.30
2019-02-18T18:36:15.494Z,62.47
2019-02-18T18:38:46.743Z,58.83
2019-02-18T18:41:18.871Z,61.23
2019-02-18T18:43:49.955Z,63.87
2019-02-18T18:46:21.158Z,61.53
2019-02-18T18:48:52.190Z,64.17
2019-02-18T18:51:23.693Z,65.67
2019-02-18T18:53:54.531Z,68.60
2019-02-18T18:56:27.299Z,64.20
2019-02-18T18:59:00.150Z,63.70
2019-02-18T19:01:32.144Z,71.00
2019-02-18T19:04:03.089Z,65.93
2019-02-18T19:06:38.277Z,71.43
2019-02-18T19:09:12.251Z,68.67
2019-02-18T19:11:43.991Z,69.13
2019-02-18T19:14:14.671Z,67.97
2019-02-18T19:16:49.698Z,78.90
2019-02-18T19:19:21.743Z,77.80
2019-02-18T19:21:55.539Z,76.40
2019-02-18T19:24:26.840Z,77.37
2019-02-18T19:26:58.291Z,73.60
2019-02-18T19:29:30.653Z,72.60
2019-02-18T19:32:01.566Z,69.60
2019-02-18T19:34:35.473Z,84.67
2019-02-18T19:37:10.174Z,77.00
2019-02-18T19:39:42.095Z,77.50
2019-02-18T19:42:14.387Z,81.87
2019-02-18T19:44:46.098Z,76.50
2019-02-18T19:47:17.513Z,76.73
2019-02-18T19:49:49.495Z,80.43
2019-02-18T19:52:20.933Z,76.13
2019-02-18T19:54:52.074Z,73.30
2019-02-18T19:57:22.930Z,79.83
2019-02-18T19:59:54.486Z,86.23
2019-02-18T20:02:26.021Z,74.80
2019-02-18T20:04:57.152Z,76.20
2019-02-18T20:07:28.729Z,77.10
2019-02-18T20:09:59.336Z,87.37
2019-02-18T20:12:30.572Z,87.27
2019-02-18T20:15:01.863Z,83.83
2019-02-18T20:17:34.492Z,86.37
2019-02-18T20:20:05.722Z,92.73
2019-02-18T20:22:39.421Z,85.20
2019-02-18T20:25:11.948Z,84.47
2019-02-18T20:27:44.164Z,87.77
2019-02-18T20:30:17.161Z,84.37
2019-02-18T20:32:47.895Z,78.93
2019-02-18T20:35:19.016Z,85.07
2019-02-18T20:37:50.781Z,87.40
2019-02-18T20:40:22.019Z,82.97
2019-02-18T20:42:53.190Z,77.90
2019-02-18T20:45:24.347Z,92.77
2019-02-18T20:47:55.258Z,84.00
2019-02-18T20:50:26.176Z,85.60
2019-02-18T20:52:57.249Z,87.27
2019-02-18T20:55:28.249Z,84.60
2019-02-18T20:57:59.780Z,90.07
2019-02-18T21:00:30.759Z,86.83
2019-02-18T21:03:01.998Z,87.10
2019-02-18T21:05:32.809Z,85.93
2019-02-18T21:08:04.218Z,93.07
2019-02-18T21:10:35.200Z,87.00
2019-02-18T21:13:06.268Z,80.97
2019-02-18T21:15:37.314Z,83.47
2019-02-18T21:18:08.345Z,91.30
2019-02-18T21:20:39.219Z,84.83
2019-02-18T21:23:10.762Z,89.07
2019-02-18T21:25:41.642Z,90.13
2019-02-18T21:28:13.546Z,88.90
2019-02-18T21:30:45.664Z,87.87
2019-02-18T21:33:17.013Z,88.40
2019-02-18T21:35:48.998Z,89.97
2019-02-18T21:38:20.006Z,94.93
2019-02-18T21:40:51.235Z,88.37
2019-02-18T21:43:22.225Z,89.30
2019-02-18T21:45:53.224Z,93.60
2019-02-18T21:48:24.051Z,91.03
2019-02-18T21:50:55.177Z,91.77
2019-02-18T21:53:26.637Z,85.43
2019-02-18T21:55:57.473Z,88.07
2019-02-18T21:58:28.317Z,87.70
2019-02-18T22:00:59.613Z,95.07
2019-02-18T22:03:30.837Z,90.73
2019-02-18T22:06:01.275Z,93.60
2019-02-18T22:08:34.433Z,101.03
2019-02-18T22:11:05.651Z,102.73
2019-02-18T22:13:36.811Z,99.93
2019-02-18T22:16:07.805Z,94.50
2019-02-18T22:18:38.711Z,99.57
2019-02-18T22:21:10.083Z,99.33
2019-02-18T22:23:40.832Z,95.63
2019-02-18T22:26:11.948Z,101.80
2019-02-18T22:28:42.700Z,98.30
2019-02-18T22:31:13.514Z,102.30
2019-02-18T22:33:44.101Z,94.73
2019-02-18T22:36:15.274Z,100.83
2019-02-18T22:38:46.390Z,105.40
2019-02-18T22:41:17.096Z,98.73
2019-02-18T22:43:47.828Z,100.13
2019-02-18T22:46:18.904Z,110.07
2019-02-18T22:48:51.012Z,99.30
2019-02-18T22:51:21.828Z,98.27
2019-02-18T22:53:52.385Z,100.80
2019-02-18T22:56:23.029Z,99.90
2019-02-18T22:58:53.545Z,109.77
2019-02-18T23:01:24.514Z,100.53
2019-02-18T23:03:55.525Z,107.63
2019-02-18T23:06:27.123Z,99.47
2019-02-18T23:08:58.090Z,108.40
2019-02-18T23:11:28.690Z,105.67
2019-02-18T23:13:59.406Z,106.93
2019-02-18T23:16:30.056Z,104.43
2019-02-18T23:19:01.008Z,111.23
2019-02-18T23:21:31.919Z,100.37
2019-02-18T23:24:02.549Z,110.83
2019-02-18T23:26:34.657Z,111.87
2019-02-18T23:29:05.595Z,109.57
2019-02-18T23:31:36.240Z,115.23
2019-02-18T23:34:07.209Z,106.30
2019-02-18T23:36:37.891Z,109.40
2019-02-18T23:39:09.296Z,113.33
2019-02-18T23:41:40.205Z,100.30
2019-02-18T23:44:11.061Z,110.93
2019-02-18T23:46:41.982Z,107.07
2019-02-18T23:49:12.991Z,113.57
2019-02-18T23:51:44.590Z,107.00
2019-02-18T23:54:15.350Z,115.00
2019-02-18T23:56:45.893Z,111.87
2019-02-18T23:59:16.895Z,115.83
